الصفحة الرئيسية
METAR-TAF:

METAR-TAF

مطار :

خرم آباد, إيران

دائرة عرض: 33-26-11N, خط طول: 048-17-09E, ارتفاع: 1155 متر

مراقبة الطقس الحالي

تاريخ ووقت الإصدار 59 دقيقة قبل الساعة 07:00UTC
ريح 4 عقدة من الشمال الشرقي
درجة الحرارة 36°درجة مئوية
الرطوبة 14%
ضغط 1009 hPa
الرؤية 10 كم أو أكثر
الغيوم لا تقل 1500 م ولا وجود لمزنة ركامية السحاب الأسود

METAR: OICK 140700Z 04004KT CAVOK 36/04 Q1009 A2980

زمن: 12:29 (07:59 UTC)


TAF: مفقودة

أرصاد الطقس والتوقعات من أكثر من 4000 مطار (تقارير الطقس للمطار METAR والتنبؤ بالطقس بالمطارTAF).

المحطات المتاحة هي النقط الصفراء والحمراء على الخريطة.

حرك المؤشر فوق النقطة لمعرفة اسم المحطة.

ثم انقر لمعرفة أرصاد وتوقعات الطقس.

لتغيير الخارطة: اضغط على الأزرار الخضراء مع رمز الصليب الأسود للتكبير. على الزر الأخضر مع شرطة للتصغير، أو على الأسهم الخضراء للخرائط المجاورة.


METAR-TAF: